Time;durP1;ratioP1;P1;durP2;ratioP2;P2;SDS_P1;SDS_P2;PMS_P1;PMS_P2;Temp;Humidity;BMP_temperature;BMP_pressure;BME280_temperature;BME280_humidity;BME280_pressure;Samples;Min_cycle;Max_cycle;Signal;HPM_P1;HPM_P2
2023/08/12 00:00:07;;;;;;;4.43;0.82;;;;;;;22.70;83.82;101046.03;5017728;28;20029;-65
2023/08/12 00:02:32;;;;;;;1.05;0.95;;;;;;;22.70;83.23;101052.31;5019982;28;20564;-66
2023/08/12 00:04:57;;;;;;;0.85;0.80;;;;;;;22.66;83.85;101051.59;5021550;28;20022;-65
2023/08/12 00:07:24;;;;;;;0.95;0.70;;;;;;;22.67;83.82;101044.13;5014421;28;20067;-66
2023/08/12 00:09:49;;;;;;;1.05;0.90;;;;;;;22.68;83.49;101042.94;5012257;28;20516;-67
2023/08/12 00:12:15;;;;;;;1.17;0.75;;;;;;;22.67;83.50;101033.91;5026543;28;20117;-67
2023/08/12 00:14:43;;;;;;;2.20;1.00;;;;;;;22.67;83.82;101030.38;5013966;28;20124;-67
2023/08/12 00:17:08;;;;;;;3.10;1.20;;;;;;;22.64;83.60;101032.03;5018353;28;20074;-65
2023/08/12 00:19:34;;;;;;;1.85;1.08;;;;;;;22.62;83.80;101025.41;5016961;28;20037;-67
2023/08/12 00:21:59;;;;;;;2.10;1.48;;;;;;;22.57;83.58;101036.91;5024317;28;20029;-66
2023/08/12 00:24:24;;;;;;;3.38;1.00;;;;;;;22.55;83.51;101031.78;4996058;28;20124;-67
2023/08/12 00:26:50;;;;;;;2.10;1.23;;;;;;;22.59;83.22;101031.78;5017469;28;20037;-66
2023/08/12 00:29:15;;;;;;;2.20;1.20;;;;;;;22.55;83.57;101023.56;5023870;28;20061;-66
2023/08/12 00:31:41;;;;;;;1.73;1.00;;;;;;;22.56;83.50;101024.34;5011108;28;20079;-67
2023/08/12 00:34:06;;;;;;;1.52;0.70;;;;;;;22.58;83.65;101025.50;5028886;28;20037;-66
2023/08/12 00:36:31;;;;;;;1.17;1.08;;;;;;;22.59;83.55;101026.28;5010176;28;20033;-66
2023/08/12 00:38:57;;;;;;;1.73;1.08;;;;;;;22.55;83.82;101020.06;4998945;28;20032;-66
2023/08/12 00:41:22;;;;;;;1.65;0.93;;;;;;;22.53;83.81;101017.72;5023162;28;20142;-66
2023/08/12 00:43:48;;;;;;;1.88;1.00;;;;;;;22.54;83.85;101015.75;5003994;28;20040;-67
2023/08/12 00:46:13;;;;;;;3.40;1.55;;;;;;;22.53;83.84;101017.72;5026961;28;20036;-65
2023/08/12 00:48:40;;;;;;;1.92;1.05;;;;;;;22.51;83.55;101013.88;5018278;28;20398;-66
2023/08/12 00:51:05;;;;;;;1.10;0.98;;;;;;;22.49;84.27;101017.06;5022548;28;20018;-66
2023/08/12 00:53:31;;;;;;;1.63;0.95;;;;;;;22.45;83.85;101011.63;5022160;28;20420;-65
2023/08/12 00:55:58;;;;;;;0.80;0.77;;;;;;;22.41;84.41;101032.13;5018758;28;20034;-66
2023/08/12 00:58:23;;;;;;;0.98;0.85;;;;;;;22.38;84.58;101011.00;5020332;28;20375;-66
2023/08/12 01:00:50;;;;;;;1.55;1.00;;;;;;;22.39;84.31;101012.56;5018116;28;20087;-66
2023/08/12 01:03:17;;;;;;;1.08;0.70;;;;;;;22.41;84.61;101010.94;5024686;28;20084;-67
2023/08/12 01:05:43;;;;;;;2.10;0.77;;;;;;;22.41;84.44;101010.16;5023135;28;20013;-66
2023/08/12 01:08:09;;;;;;;1.83;0.70;;;;;;;22.39;84.52;101005.13;5012136;28;20030;-65
2023/08/12 01:10:39;;;;;;;1.40;1.05;;;;;;;22.35;85.01;101014.63;5019821;28;20030;-65
2023/08/12 01:13:24;;;;;;;1.45;1.02;;;;;;;22.38;84.91;101008.25;5017027;28;20806;-66
2023/08/12 01:15:53;;;;;;;0.45;0.45;;;;;;;22.36;84.68;101007.91;5016314;28;20037;-67
2023/08/12 01:18:20;;;;;;;1.20;0.88;;;;;;;22.32;84.86;100999.75;5006099;28;20036;-66
2023/08/12 01:20:46;;;;;;;1.02;0.93;;;;;;;22.33;84.50;101003.28;5017482;28;20040;-66
2023/08/12 01:23:15;;;;;;;1.00;0.73;;;;;;;22.28;84.94;100998.28;5003478;28;20065;-66
2023/08/12 01:25:42;;;;;;;3.15;1.00;;;;;;;22.26;85.03;100995.97;5009666;28;20473;-66
2023/08/12 01:28:08;;;;;;;1.50;1.00;;;;;;;22.19;85.04;100995.38;5023224;28;20025;-67
2023/08/12 01:30:40;;;;;;;0.70;0.70;;;;;;;22.17;84.94;101001.28;5005440;28;20033;-66
2023/08/12 01:33:19;;;;;;;1.00;0.93;;;;;;;22.19;85.10;100995.38;5021349;28;20470;-65
2023/08/12 01:35:53;;;;;;;0.80;0.65;;;;;;;22.17;85.30;100997.75;5008934;28;20544;-65
2023/08/12 01:38:19;;;;;;;4.95;0.98;;;;;;;22.13;84.98;101003.31;5027090;28;20107;-66
2023/08/12 01:40:46;;;;;;;5.32;1.10;;;;;;;22.15;85.01;100997.41;5009003;28;20080;-66
2023/08/12 01:43:12;;;;;;;1.30;0.90;;;;;;;22.09;85.67;100996.34;4991397;28;20161;-66
2023/08/12 01:45:37;;;;;;;1.23;1.00;;;;;;;22.07;85.52;100985.03;5003484;28;20129;-65
2023/08/12 01:48:03;;;;;;;1.55;1.05;;;;;;;22.06;86.01;100973.31;5018319;28;20171;-66
2023/08/12 01:50:29;;;;;;;1.00;0.90;;;;;;;22.05;85.77;100971.75;5023435;28;20501;-64
2023/08/12 01:52:54;;;;;;;1.48;1.00;;;;;;;22.06;85.80;100967.03;5009332;28;20041;-66
2023/08/12 01:55:20;;;;;;;0.73;0.70;;;;;;;22.00;86.46;100964.03;4996346;28;20036;-67
2023/08/12 01:57:45;;;;;;;1.35;1.00;;;;;;;22.02;86.14;100966.34;5011543;28;20401;-66
2023/08/12 02:00:11;;;;;;;2.13;1.00;;;;;;;21.94;86.27;100962.97;5011580;28;20021;-66
2023/08/12 02:02:46;;;;;;;1.35;0.88;;;;;;;21.96;86.60;100971.56;5026846;28;20068;-66
2023/08/12 02:05:11;;;;;;;2.75;0.80;;;;;;;21.95;86.16;100964.50;5014876;28;20453;-66
2023/08/12 02:07:37;;;;;;;1.10;0.90;;;;;;;21.92;86.10;100962.63;5028169;28;20045;-66
2023/08/12 02:10:02;;;;;;;2.13;1.20;;;;;;;21.91;85.85;100961.06;5017956;28;20044;-66
2023/08/12 02:12:27;;;;;;;1.08;0.98;;;;;;;21.91;86.05;100960.31;5023714;28;20134;-65
2023/08/12 02:14:53;;;;;;;1.83;1.27;;;;;;;21.94;86.30;100956.72;5023394;28;20454;-66
2023/08/12 02:17:18;;;;;;;4.18;0.98;;;;;;;21.89;86.77;100938.03;5012348;28;20040;-65
2023/08/12 02:19:44;;;;;;;1.17;0.90;;;;;;;21.91;86.20;100946.59;5028549;28;20031;-66
2023/08/12 02:22:10;;;;;;;1.65;0.90;;;;;;;21.88;86.20;100942.72;5018340;28;20060;-66
2023/08/12 02:24:35;;;;;;;1.30;0.70;;;;;;;21.88;86.34;100933.72;5022271;28;20029;-65
2023/08/12 02:27:01;;;;;;;1.38;0.95;;;;;;;21.85;86.77;100956.53;5009272;28;20030;-65
2023/08/12 02:29:26;;;;;;;1.17;0.70;;;;;;;21.87;86.22;100943.94;5028333;28;20506;-64
2023/08/12 02:31:52;;;;;;;1.60;0.98;;;;;;;21.84;86.25;100933.03;5015006;28;20389;-65
2023/08/12 02:34:19;;;;;;;1.40;0.95;;;;;;;21.76;86.26;100937.06;5031348;28;20029;-67
2023/08/12 02:36:44;;;;;;;3.33;1.00;;;;;;;21.72;86.38;100936.41;5026851;28;20083;-66
2023/08/12 02:39:30;;;;;;;1.13;1.00;;;;;;;21.71;86.34;100945.81;5007304;28;20025;-66
2023/08/12 02:41:56;;;;;;;1.38;1.00;;;;;;;21.65;86.95;100936.53;4944073;28;20042;-66
2023/08/12 02:44:21;;;;;;;1.75;1.02;;;;;;;21.68;86.55;100932.97;4951209;28;20046;-66
2023/08/12 02:46:46;;;;;;;1.15;0.77;;;;;;;21.61;86.57;100936.59;4957979;28;20066;-66
2023/08/12 02:49:12;;;;;;;8.38;1.10;;;;;;;21.54;86.92;100926.53;4924074;29;20086;-65
2023/08/12 02:51:37;;;;;;;0.98;0.82;;;;;;;21.55;86.77;100928.09;4968104;28;20492;-65
2023/08/12 02:54:03;;;;;;;0.88;0.73;;;;;;;21.53;86.95;100922.28;4955082;28;20512;-65
2023/08/12 02:56:28;;;;;;;1.00;0.90;;;;;;;21.54;86.88;100920.31;4945415;28;20035;-65
2023/08/12 02:58:54;;;;;;;1.33;0.90;;;;;;;21.51;87.31;100918.41;4946912;28;20435;-66
2023/08/12 03:01:21;;;;;;;1.40;0.98;;;;;;;21.50;87.04;100920.34;4971288;28;20031;-66
2023/08/12 03:03:46;;;;;;;1.40;0.90;;;;;;;21.46;87.40;100918.91;4938793;28;20085;-66
2023/08/12 03:06:12;;;;;;;1.23;0.77;;;;;;;21.43;87.30;100926.00;4942169;29;20046;-66
2023/08/12 03:08:37;;;;;;;1.92;0.90;;;;;;;21.41;87.79;100928.38;4971198;28;20066;-67
2023/08/12 03:11:03;;;;;;;1.10;1.00;;;;;;;21.46;87.63;100930.66;4936790;28;20158;-66
2023/08/12 03:13:30;;;;;;;1.67;0.88;;;;;;;21.49;87.69;100931.75;4940251;29;20610;-66
2023/08/12 03:15:56;;;;;;;1.30;0.90;;;;;;;21.50;88.20;100934.06;4928908;29;20031;-66
2023/08/12 03:18:22;;;;;;;1.95;1.00;;;;;;;21.43;88.60;100933.44;4949573;28;20132;-66
2023/08/12 03:20:47;;;;;;;3.67;1.17;;;;;;;21.45;88.30;100929.09;5004426;28;20017;-66
2023/08/12 03:23:14;;;;;;;0.80;0.80;;;;;;;21.47;88.27;100914.94;5026022;28;20188;-68
2023/08/12 03:25:46;;;;;;;1.55;0.95;;;;;;;21.42;88.46;100908.00;5012524;28;20037;-66
2023/08/12 03:28:12;;;;;;;1.63;0.90;;;;;;;21.41;88.64;100911.94;4997854;28;20029;-66
2023/08/12 03:30:38;;;;;;;1.30;1.20;;;;;;;21.49;88.17;100920.78;5017418;28;20100;-67
2023/08/12 03:33:04;;;;;;;1.13;1.02;;;;;;;21.49;88.28;100916.09;5019580;28;20030;-66
2023/08/12 03:35:32;;;;;;;1.55;1.15;;;;;;;21.50;88.08;100928.56;5007993;28;20030;-66
2023/08/12 03:37:58;;;;;;;1.60;1.00;;;;;;;21.45;87.77;100929.09;5004181;28;20048;-66
2023/08/12 03:40:24;;;;;;;2.50;0.95;;;;;;;21.47;88.53;100931.41;4996995;28;20029;-66
2023/08/12 03:42:49;;;;;;;1.63;1.05;;;;;;;21.49;88.08;100927.03;5026091;28;20029;-66
2023/08/12 03:45:17;;;;;;;1.10;1.00;;;;;;;21.48;87.94;100922.00;5013432;28;20021;-66
2023/08/12 03:47:42;;;;;;;4.18;1.05;;;;;;;21.51;88.31;100918.41;5011352;28;20033;-66
2023/08/12 03:50:09;;;;;;;0.68;0.65;;;;;;;21.55;88.56;100917.13;5005910;28;20037;-66
2023/08/12 03:52:34;;;;;;;0.60;0.60;;;;;;;21.52;88.74;100911.72;5006028;28;20494;-66
2023/08/12 03:55:00;;;;;;;1.38;0.90;;;;;;;21.51;88.36;100908.22;5000527;28;20029;-65
2023/08/12 03:57:26;;;;;;;1.30;0.82;;;;;;;21.45;88.96;100898.16;5027684;28;20030;-66
2023/08/12 03:59:51;;;;;;;0.90;0.70;;;;;;;21.49;88.73;100894.16;5007381;28;20039;-65
2023/08/12 04:02:17;;;;;;;1.75;1.20;;;;;;;21.47;88.28;100868.34;5027317;28;20512;-65
2023/08/12 04:04:43;;;;;;;2.00;1.20;;;;;;;21.49;88.85;100876.94;5009109;28;20040;-67
2023/08/12 04:07:09;;;;;;;1.40;1.13;;;;;;;21.49;88.20;100874.19;5012320;28;20021;-67
2023/08/12 04:09:35;;;;;;;2.40;1.05;;;;;;;21.51;88.46;100882.75;5018760;28;20033;-66
2023/08/12 04:12:00;;;;;;;1.40;1.10;;;;;;;21.51;88.64;100891.75;5006643;28;20041;-65
2023/08/12 04:14:26;;;;;;;2.47;0.85;;;;;;;21.52;89.14;100887.06;5009171;28;20021;-67
2023/08/12 04:16:51;;;;;;;1.58;1.10;;;;;;;21.49;89.46;100885.16;5021689;28;20076;-67
2023/08/12 04:19:16;;;;;;;0.95;0.85;;;;;;;21.47;89.46;100876.56;5003385;28;20036;-66
2023/08/12 04:21:46;;;;;;;1.70;1.20;;;;;;;21.49;89.95;100885.94;5005978;28;20037;-66
2023/08/12 04:24:11;;;;;;;1.60;1.40;;;;;;;21.50;89.24;100898.44;5002746;28;20040;-66
2023/08/12 04:26:37;;;;;;;1.52;1.05;;;;;;;21.42;88.71;100891.56;4998532;28;20030;-66
2023/08/12 04:29:03;;;;;;;1.50;1.00;;;;;;;21.46;88.75;100900.50;5005336;28;20548;-66
2023/08/12 04:31:29;;;;;;;1.05;0.95;;;;;;;21.43;88.21;100895.84;5010491;28;20561;-65
2023/08/12 04:33:55;;;;;;;0.98;0.90;;;;;;;21.46;88.24;100891.50;5026741;28;20029;-65
2023/08/12 04:36:22;;;;;;;1.27;1.10;;;;;;;21.47;88.60;100884.78;5009696;28;20124;-66
2023/08/12 04:38:49;;;;;;;0.77;0.77;;;;;;;21.45;88.16;100907.16;5001783;28;20117;-66
2023/08/12 04:41:15;;;;;;;1.63;0.82;;;;;;;21.46;88.21;100903.25;5010750;28;20063;-67
2023/08/12 04:43:41;;;;;;;1.70;1.00;;;;;;;21.48;88.71;100909.06;5009181;28;20032;-67
2023/08/12 04:46:06;;;;;;;0.90;0.90;;;;;;;21.40;88.33;100915.09;4993384;28;20078;-66
2023/08/12 04:48:33;;;;;;;3.55;1.08;;;;;;;21.36;88.46;100915.19;5020439;28;20038;-67
2023/08/12 04:51:01;;;;;;;1.08;0.90;;;;;;;21.34;89.15;100909.34;5012486;28;20021;-66
2023/08/12 04:53:27;;;;;;;1.35;0.85;;;;;;;21.40;89.14;100913.16;5011952;28;20502;-67
2023/08/12 04:55:55;;;;;;;3.45;1.08;;;;;;;21.40;89.35;100913.16;5006288;28;20052;-67
2023/08/12 04:58:21;;;;;;;1.48;0.95;;;;;;;21.43;89.40;100909.53;5005609;28;20026;-66
2023/08/12 05:00:47;;;;;;;1.55;1.00;;;;;;;21.45;89.65;100906.38;5007817;28;20068;-66
2023/08/12 05:03:12;;;;;;;1.70;0.95;;;;;;;21.45;89.55;100896.19;5005439;28;20065;-66
2023/08/12 05:05:38;;;;;;;5.50;1.27;;;;;;;21.50;89.56;100898.44;5028238;28;20040;-67
2023/08/12 05:08:03;;;;;;;1.80;1.02;;;;;;;21.51;89.49;100889.03;5011409;28;20025;-66
2023/08/12 05:10:29;;;;;;;2.63;1.20;;;;;;;21.51;89.52;100880.03;5022445;28;20518;-66
2023/08/12 05:12:57;;;;;;;1.98;1.10;;;;;;;21.53;89.93;100881.16;5022646;28;20056;-67
2023/08/12 05:15:24;;;;;;;1.70;1.00;;;;;;;21.53;90.55;100883.09;5012398;28;20033;-67
2023/08/12 05:17:50;;;;;;;1.17;1.08;;;;;;;21.54;90.59;100892.91;5020895;28;20055;-67
2023/08/12 05:20:39;;;;;;;2.33;0.98;;;;;;;21.52;89.98;100898.78;5020439;28;20013;-66
2023/08/12 05:23:05;;;;;;;1.35;1.00;;;;;;;21.50;90.09;100898.44;4939276;28;20508;-66
2023/08/12 05:25:30;;;;;;;1.58;1.10;;;;;;;21.52;90.23;100881.59;4952792;28;20043;-66
2023/08/12 05:27:55;;;;;;;1.23;1.02;;;;;;;21.54;90.76;100895.63;4946778;28;20109;-66
2023/08/12 05:30:21;;;;;;;1.10;1.00;;;;;;;21.58;90.49;100897.09;4958025;28;20604;-65
2023/08/12 05:32:46;;;;;;;1.50;0.88;;;;;;;21.58;90.55;100888.88;4953486;28;20385;-66
2023/08/12 05:35:12;;;;;;;1.23;0.90;;;;;;;21.62;90.97;100882.56;4956097;28;20409;-66
2023/08/12 05:37:37;;;;;;;1.38;1.00;;;;;;;21.66;90.61;100892.22;4949181;28;20042;-66
2023/08/12 05:40:07;;;;;;;1.15;0.98;;;;;;;21.69;91.28;100894.13;4957644;28;20191;-66
2023/08/12 05:42:53;;;;;;;1.67;0.90;;;;;;;21.70;91.06;100889.44;4949891;29;20381;-65
2023/08/12 05:45:19;;;;;;;1.90;1.08;;;;;;;21.72;91.10;100889.78;4871391;29;20044;-65
2023/08/12 05:47:44;;;;;;;1.55;1.15;;;;;;;21.66;90.81;100905.19;4873436;29;20048;-66
2023/08/12 05:50:09;;;;;;;1.42;1.05;;;;;;;21.68;90.93;100902.78;4874674;29;20586;-66
2023/08/12 05:52:35;;;;;;;2.08;1.42;;;;;;;21.73;90.68;100902.28;4873925;29;20033;-66
2023/08/12 05:55:00;;;;;;;1.88;1.13;;;;;;;21.63;89.73;100895.81;4871680;29;20447;-66
2023/08/12 05:57:26;;;;;;;1.52;1.15;;;;;;;21.69;89.77;100898.84;4874852;29;20434;-66
2023/08/12 05:59:52;;;;;;;2.83;1.02;;;;;;;21.81;90.17;100898.22;4894260;29;20110;-65
2023/08/12 06:02:18;;;;;;;0.90;0.70;;;;;;;21.84;90.71;100911.84;4923012;29;20494;-65
2023/08/12 06:04:43;;;;;;;1.42;1.20;;;;;;;21.90;91.19;100909.38;4919847;29;20043;-66
2023/08/12 06:07:09;;;;;;;1.30;1.00;;;;;;;21.91;92.30;100916.44;4913726;29;20452;-66
2023/08/12 06:09:34;;;;;;;2.00;1.00;;;;;;;21.93;92.35;100914.03;4921979;29;20047;-65
2023/08/12 06:12:00;;;;;;;2.05;1.27;;;;;;;21.94;93.30;100915.56;4923300;29;20035;-65
2023/08/12 06:14:25;;;;;;;3.13;1.05;;;;;;;21.95;93.25;100923.34;4926812;29;20048;-66
2023/08/12 06:16:51;;;;;;;1.88;1.30;;;;;;;21.95;93.28;100917.88;4909798;29;20123;-67
2023/08/12 06:19:16;;;;;;;1.15;1.00;;;;;;;21.88;92.46;100925.50;4924755;29;20562;-66
2023/08/12 06:21:41;;;;;;;1.13;1.02;;;;;;;21.90;93.53;100925.84;4949546;28;20151;-65
2023/08/12 06:24:07;;;;;;;2.00;1.70;;;;;;;21.95;94.03;100917.13;5010903;28;20038;-67
2023/08/12 06:26:53;;;;;;;1.48;1.10;;;;;;;21.95;94.08;100917.13;5020453;28;20021;-67
2023/08/12 06:29:18;;;;;;;1.80;0.98;;;;;;;21.99;94.29;100920.56;4932755;29;20163;-66
2023/08/12 06:31:44;;;;;;;3.88;1.20;;;;;;;22.01;94.21;100909.94;4942741;29;20134;-67
2023/08/12 06:34:09;;;;;;;1.80;1.50;;;;;;;21.89;92.91;100911.34;4944254;29;20039;-65
2023/08/12 06:36:34;;;;;;;1.50;1.08;;;;;;;21.86;93.27;100897.72;4946899;28;20047;-67
2023/08/12 06:39:00;;;;;;;0.93;0.88;;;;;;;21.91;93.81;100895.22;4950820;28;20496;-66
2023/08/12 06:41:25;;;;;;;1.20;1.08;;;;;;;21.95;94.36;100897.91;4948714;29;20043;-66
2023/08/12 06:43:51;;;;;;;1.38;1.08;;;;;;;21.99;95.02;100896.63;4924090;29;20043;-66
2023/08/12 06:46:16;;;;;;;2.30;1.40;;;;;;;22.01;94.79;100894.22;4951188;28;20114;-66
2023/08/12 06:48:42;;;;;;;4.68;1.10;;;;;;;22.03;95.25;100885.56;4949149;29;20034;-66
2023/08/12 06:51:10;;;;;;;2.22;1.33;;;;;;;22.06;95.54;100884.72;4944770;29;20042;-66
2023/08/12 06:53:36;;;;;;;1.65;1.20;;;;;;;22.12;95.32;100889.28;4951444;29;20078;-67
2023/08/12 06:56:02;;;;;;;3.38;1.85;;;;;;;22.08;94.61;100882.31;4948044;28;20488;-66
2023/08/12 06:58:27;;;;;;;2.60;1.70;;;;;;;22.07;94.81;100876.06;4948978;28;20039;-67
2023/08/12 07:00:53;;;;;;;1.42;1.00;;;;;;;22.07;94.73;100869.78;4934957;29;20047;-67
2023/08/12 07:03:19;;;;;;;2.58;1.45;;;;;;;22.10;95.41;100877.19;4944220;28;20227;-66
2023/08/12 07:05:44;;;;;;;2.55;1.60;;;;;;;22.10;94.99;100872.47;4972837;28;20075;-66
2023/08/12 07:08:10;;;;;;;2.08;1.60;;;;;;;22.15;95.23;100877.44;5030444;28;20443;-66
2023/08/12 07:10:39;;;;;;;2.35;1.55;;;;;;;22.21;95.35;100878.47;5024863;28;20036;-66
2023/08/12 07:13:05;;;;;;;2.53;1.83;;;;;;;22.30;95.15;100877.88;5009973;28;20083;-66
2023/08/12 07:15:30;;;;;;;4.15;1.77;;;;;;;22.33;95.43;100872.31;5009353;28;20490;-65
2023/08/12 07:17:57;;;;;;;1.83;1.35;;;;;;;22.41;95.48;100867.41;5011482;28;20028;-66
2023/08/12 07:20:24;;;;;;;3.38;1.45;;;;;;;22.44;96.06;100869.28;4993089;28;20037;-66
2023/08/12 07:22:49;;;;;;;2.42;1.73;;;;;;;22.48;96.02;100866.44;5026559;28;20049;-66
2023/08/12 07:25:15;;;;;;;4.22;2.40;;;;;;;22.50;95.38;100869.53;5025357;28;20033;-65
2023/08/12 07:27:41;;;;;;;2.20;1.58;;;;;;;22.53;95.42;100857.72;4998120;28;20026;-66
2023/08/12 07:30:07;;;;;;;4.93;2.30;;;;;;;22.60;94.70;100863.81;5007951;28;20091;-66
2023/08/12 07:32:33;;;;;;;4.35;2.17;;;;;;;22.62;95.01;100855.91;5027182;28;20448;-66
2023/08/12 07:34:59;;;;;;;2.92;2.28;;;;;;;22.66;94.67;100853.84;5006670;28;20067;-66
2023/08/12 07:37:25;;;;;;;7.18;2.20;;;;;;;22.70;95.09;100848.28;5023343;28;20036;-66
2023/08/12 07:39:51;;;;;;;2.97;2.17;;;;;;;22.77;95.11;100854.34;5030526;28;20144;-66
2023/08/12 07:42:17;;;;;;;6.35;1.65;;;;;;;22.82;95.21;100861.28;5030362;28;20121;-66
2023/08/12 07:44:42;;;;;;;3.92;2.33;;;;;;;22.83;95.25;100855.34;5029654;28;20087;-66
2023/08/12 07:47:09;;;;;;;4.93;2.22;;;;;;;22.86;95.25;100848.25;5024076;28;20041;-66
2023/08/12 07:49:34;;;;;;;2.40;1.88;;;;;;;22.83;95.45;100860.84;5029580;28;20056;-67
2023/08/12 07:52:00;;;;;;;4.85;2.05;;;;;;;22.81;95.70;100846.00;5028834;28;20481;-66
2023/08/12 07:54:26;;;;;;;5.13;2.55;;;;;;;22.81;95.71;100851.50;5028280;28;20084;-66
2023/08/12 07:56:53;;;;;;;2.78;1.92;;;;;;;22.85;95.77;100852.19;5012550;28;20130;-66
2023/08/12 07:59:19;;;;;;;2.63;2.05;;;;;;;22.88;95.24;100848.56;5024693;28;20043;-66
2023/08/12 08:01:44;;;;;;;3.70;2.45;;;;;;;22.88;95.31;100846.56;5024087;28;20037;-66
2023/08/12 08:04:10;;;;;;;3.92;2.20;;;;;;;22.88;95.70;100860.31;5027153;28;20771;-66
2023/08/12 08:06:35;;;;;;;3.75;2.47;;;;;;;22.87;95.54;100864.28;5031898;28;20087;-65
2023/08/12 08:09:03;;;;;;;4.55;2.13;;;;;;;22.88;95.65;100871.31;5025919;28;20072;-66
2023/08/12 08:11:28;;;;;;;3.47;2.08;;;;;;;22.91;96.03;100866.94;5016431;28;20489;-65
2023/08/12 08:13:54;;;;;;;3.58;2.10;;;;;;;22.90;95.81;100865.41;5013304;28;20040;-65
2023/08/12 08:16:19;;;;;;;4.30;2.22;;;;;;;22.90;96.02;100863.41;5028080;28;20056;-66
2023/08/12 08:18:45;;;;;;;3.30;2.22;;;;;;;22.93;95.61;100854.31;5022945;28;20121;-66
2023/08/12 08:21:10;;;;;;;4.57;2.85;;;;;;;22.96;95.79;100858.16;5026777;28;20040;-66
2023/08/12 08:23:36;;;;;;;8.15;2.33;;;;;;;23.02;95.51;100861.91;5030692;28;20037;-65
2023/08/12 08:26:01;;;;;;;3.50;2.28;;;;;;;23.05;95.07;100861.81;5012730;28;20090;-66
2023/08/12 08:28:26;;;;;;;2.60;2.08;;;;;;;23.09;95.16;100848.75;5022647;28;20030;-66
2023/08/12 08:30:53;;;;;;;2.67;2.00;;;;;;;23.14;94.71;100848.22;5027555;28;20028;-66
2023/08/12 08:33:19;;;;;;;4.13;2.38;;;;;;;23.21;94.26;100853.50;5025780;28;20033;-65
2023/08/12 08:35:44;;;;;;;3.55;1.95;;;;;;;23.25;94.16;100853.41;5026944;28;20029;-66
2023/08/12 08:38:10;;;;;;;4.35;2.13;;;;;;;23.28;94.06;100844.31;5028929;28;20029;-65
2023/08/12 08:40:36;;;;;;;4.50;2.65;;;;;;;23.33;93.52;100845.75;5030747;28;20493;-66
2023/08/12 08:43:05;;;;;;;5.93;2.30;;;;;;;23.30;93.06;100853.66;5020242;28;20028;-66
2023/08/12 08:45:32;;;;;;;3.42;2.13;;;;;;;23.25;92.84;100865.19;5030467;28;20041;-66
2023/08/12 08:48:00;;;;;;;4.35;2.53;;;;;;;23.17;93.20;100861.06;5013381;28;20033;-66
2023/08/12 08:50:30;;;;;;;3.45;1.98;;;;;;;23.21;93.51;100853.50;4996453;28;20037;-67
2023/08/12 08:52:56;;;;;;;3.10;2.30;;;;;;;23.26;93.89;100858.50;5025815;28;20110;-66
2023/08/12 08:55:22;;;;;;;3.80;2.15;;;;;;;23.30;93.97;100853.66;5011398;28;20545;-66
2023/08/12 08:57:49;;;;;;;3.85;2.22;;;;;;;23.37;94.11;100846.41;5013630;28;20044;-66
2023/08/12 09:00:18;;;;;;;3.50;2.13;;;;;;;23.46;93.75;100846.56;5023996;28;20056;-66
2023/08/12 09:02:47;;;;;;;3.15;2.13;;;;;;;23.50;94.08;100841.72;5026821;28;20076;-66
2023/08/12 09:05:14;;;;;;;3.38;2.17;;;;;;;23.53;94.21;100847.13;5012748;28;20045;-65
2023/08/12 09:07:41;;;;;;;3.38;1.98;;;;;;;23.46;94.31;100841.81;5011247;28;20103;-66
2023/08/12 09:10:08;;;;;;;4.18;2.20;;;;;;;23.60;93.71;100857.91;5020317;28;20060;-65
2023/08/12 09:12:34;;;;;;;3.58;1.85;;;;;;;23.70;93.40;100850.53;5025577;28;20120;-66
2023/08/12 09:14:59;;;;;;;2.65;1.73;;;;;;;23.76;93.73;100841.31;5029941;28;20112;-66
2023/08/12 09:17:25;;;;;;;6.20;2.30;;;;;;;23.80;94.07;100838.44;5021083;28;20049;-66
2023/08/12 09:19:50;;;;;;;4.15;2.00;;;;;;;23.81;93.46;100829.75;5029031;28;20422;-65
2023/08/12 09:22:17;;;;;;;3.22;2.00;;;;;;;23.82;93.35;100833.28;5024649;28;20034;-66
2023/08/12 09:24:43;;;;;;;4.13;2.22;;;;;;;23.85;93.12;100824.13;5026592;28;20498;-66
2023/08/12 09:27:09;;;;;;;3.58;2.08;;;;;;;23.90;92.89;100831.84;5013887;28;20034;-66
2023/08/12 09:29:35;;;;;;;4.30;2.08;;;;;;;23.93;93.58;100823.47;5008359;28;20037;-66
2023/08/12 09:32:17;;;;;;;3.10;2.17;;;;;;;23.99;93.67;100829.19;5019425;28;20051;-67
2023/08/12 09:35:03;;;;;;;3.08;1.95;;;;;;;23.87;93.58;100827.97;5023681;28;20509;-66
2023/08/12 09:37:28;;;;;;;2.90;1.63;;;;;;;23.97;93.68;100831.59;5027586;28;20037;-67
2023/08/12 09:39:54;;;;;;;3.35;2.28;;;;;;;24.03;94.04;100829.88;5014851;28;20030;-66
2023/08/12 09:42:19;;;;;;;3.35;2.03;;;;;;;24.09;93.93;100826.13;4999151;28;20452;-67
2023/08/12 09:44:46;;;;;;;3.33;1.75;;;;;;;24.13;94.84;100835.03;5007619;28;20025;-66
2023/08/12 09:47:12;;;;;;;4.55;2.70;;;;;;;24.25;93.55;100840.97;5023370;28;20033;-67
2023/08/12 09:49:38;;;;;;;4.32;2.50;;;;;;;24.22;94.04;100847.34;5022829;28;20029;-66
2023/08/12 09:52:05;;;;;;;3.08;2.00;;;;;;;24.27;93.74;100855.06;5024513;28;20056;-67
2023/08/12 09:54:36;;;;;;;3.35;1.98;;;;;;;24.26;93.23;100846.03;5008909;28;20060;-65
2023/08/12 09:57:06;;;;;;;4.03;2.22;;;;;;;24.28;93.14;100843.59;5024079;28;20068;-65
2023/08/12 09:59:34;;;;;;;2.70;2.20;;;;;;;24.15;93.35;100838.13;5014299;28;20046;-66
2023/08/12 10:02:03;;;;;;;3.33;2.28;;;;;;;24.29;92.70;100836.13;5021106;28;20037;-67
2023/08/12 10:04:40;;;;;;;3.28;2.03;;;;;;;24.21;92.04;100818.28;5020225;28;20116;-68
2023/08/12 10:07:07;;;;;;;4.47;2.42;;;;;;;24.21;91.82;100816.31;5023558;28;20108;-67
2023/08/12 10:09:33;;;;;;;4.45;2.47;;;;;;;24.26;92.61;100818.50;5022842;28;20029;-67
2023/08/12 10:11:59;;;;;;;2.85;2.03;;;;;;;24.30;92.62;100823.88;5026678;28;20079;-67
2023/08/12 10:14:25;;;;;;;3.47;2.17;;;;;;;24.18;92.08;100809.69;5008264;28;20409;-66
2023/08/12 10:16:53;;;;;;;2.80;2.17;;;;;;;24.16;92.92;100819.59;5022997;28;20029;-67
2023/08/12 10:19:21;;;;;;;3.20;2.25;;;;;;;24.16;93.21;100827.88;5033525;28;20098;-66
2023/08/12 10:21:48;;;;;;;3.83;2.42;;;;;;;24.16;93.88;100825.09;5032089;28;20033;-67
2023/08/12 10:24:16;;;;;;;3.95;2.05;;;;;;;24.24;93.83;100823.66;5004226;28;20087;-67
2023/08/12 10:26:42;;;;;;;3.60;2.50;;;;;;;24.23;94.16;100819.38;5020997;28;21520;-67
2023/08/12 10:29:08;;;;;;;2.95;1.95;;;;;;;24.26;94.24;100810.22;5025869;28;20037;-65
2023/08/12 10:31:33;;;;;;;2.92;2.20;;;;;;;24.32;94.35;100810.44;5021023;28;20030;-66
2023/08/12 10:33:59;;;;;;;5.03;2.63;;;;;;;24.43;93.41;100808.84;5023736;28;20041;-66
2023/08/12 10:36:26;;;;;;;4.05;2.05;;;;;;;24.47;92.97;100814.25;5026481;28;20041;-67
2023/08/12 10:38:52;;;;;;;5.38;2.35;;;;;;;24.55;93.18;100808.06;5022366;28;20092;-67
2023/08/12 10:41:18;;;;;;;3.67;2.58;;;;;;;24.70;92.73;100811.84;5025591;28;20029;-66
2023/08/12 10:44:01;;;;;;;3.42;2.25;;;;;;;24.76;92.62;100810.09;5027368;28;20120;-67
2023/08/12 10:46:32;;;;;;;5.70;2.35;;;;;;;24.66;93.03;100807.69;5023974;28;20559;-66
2023/08/12 10:49:08;;;;;;;5.70;2.20;;;;;;;24.56;93.42;100798.59;5023665;28;20107;-66
2023/08/12 10:51:48;;;;;;;5.22;2.13;;;;;;;24.50;93.51;100796.84;5002360;28;20520;-67
2023/08/12 10:54:18;;;;;;;2.95;1.92;;;;;;;24.45;93.33;100789.91;5020754;28;20053;-67
2023/08/12 10:57:11;;;;;;;9.27;2.15;;;;;;;24.39;93.67;100791.69;5030863;28;20512;-66
2023/08/12 10:59:45;;;;;;;3.45;2.08;;;;;;;24.32;94.17;100775.41;5027606;28;20092;-66
2023/08/12 11:02:33;;;;;;;2.88;1.95;;;;;;;24.29;94.30;100765.28;5023323;28;20033;-67
2023/08/12 11:05:04;;;;;;;3.25;1.98;;;;;;;24.28;94.63;100774.75;5027019;28;20630;-67
2023/08/12 11:07:38;;;;;;;4.10;2.30;;;;;;;24.30;94.62;100769.56;5022946;28;20498;-67
2023/08/12 11:10:13;;;;;;;2.80;1.70;;;;;;;24.36;94.93;100767.78;5026681;28;20042;-66
2023/08/12 11:12:41;;;;;;;3.85;1.92;;;;;;;24.54;95.14;100770.72;5022256;28;20033;-66
2023/08/12 11:15:07;;;;;;;3.78;2.53;;;;;;;24.74;94.87;100775.91;5017589;28;20137;-66
2023/08/12 11:17:38;;;;;;;5.22;3.20;;;;;;;24.87;91.94;100769.13;5023488;28;20112;-66
2023/08/12 11:20:09;;;;;;;;;;;;;;;25.01;91.16;100776.09;5021332;28;20042;-67
2023/08/12 11:22:40;;;;;;;2.17;1.90;;;;;;;25.10;90.70;100767.13;5028173;28;19913;-66